createdAt,value
2023-04-26T00:04:05.544Z,6.50
2023-04-26T00:09:28.084Z,6.22
2023-04-26T00:14:50.963Z,6.87
2023-04-26T00:20:14.445Z,5.42
2023-04-26T00:25:36.834Z,6.08
2023-04-26T00:30:59.074Z,4.70
2023-04-26T00:36:21.477Z,4.90
2023-04-26T00:41:43.784Z,4.65
2023-04-26T00:47:07.077Z,5.22
2023-04-26T00:52:29.649Z,4.37
2023-04-26T00:57:52.328Z,6.22
2023-04-26T01:03:14.899Z,5.37
2023-04-26T01:08:37.488Z,6.12
2023-04-26T01:14:00.789Z,5.78
2023-04-26T01:19:26.974Z,5.35
2023-04-26T01:24:50.325Z,4.97
2023-04-26T01:30:14.250Z,4.97
2023-04-26T01:35:36.540Z,3.92
2023-04-26T01:40:58.766Z,3.95
2023-04-26T01:46:21.249Z,3.42
2023-04-26T01:51:44.000Z,2.90
2023-04-26T01:57:06.370Z,3.92
2023-04-26T02:02:29.908Z,3.58
2023-04-26T02:07:52.357Z,3.27
2023-04-26T02:13:15.019Z,2.70
2023-04-26T02:18:37.501Z,3.60
2023-04-26T02:23:59.722Z,3.25
2023-04-26T02:29:32.623Z,3.45
2023-04-26T02:34:46.622Z,3.40
2023-04-26T02:40:12.314Z,3.47
2023-04-26T02:45:34.699Z,2.52
2023-04-26T02:50:57.489Z,2.50
2023-04-26T02:56:20.350Z,2.35
2023-04-26T03:01:42.626Z,2.67
2023-04-26T03:07:04.902Z,2.33
2023-04-26T03:12:27.231Z,2.15
2023-04-26T03:17:50.093Z,2.92
2023-04-26T03:23:12.393Z,2.42
2023-04-26T03:28:34.737Z,4.78
2023-04-26T03:33:56.971Z,4.08
2023-04-26T03:39:19.311Z,4.17
2023-04-26T03:44:41.627Z,4.78
2023-04-26T03:50:04.039Z,5.00
2023-04-26T03:55:26.717Z,4.85
2023-04-26T04:00:52.087Z,5.53
2023-04-26T04:06:14.594Z,5.00
2023-04-26T04:11:36.826Z,3.45
2023-04-26T04:16:59.884Z,3.05
2023-04-26T04:22:22.225Z,2.87
2023-04-26T04:27:47.184Z,3.60
2023-04-26T04:33:09.724Z,2.65
2023-04-26T04:38:32.121Z,2.45
2023-04-26T04:43:55.256Z,2.50
2023-04-26T04:49:19.643Z,2.62
2023-04-26T04:54:41.884Z,2.10
2023-04-26T05:00:06.217Z,2.37
2023-04-26T05:05:29.436Z,2.85
2023-04-26T05:10:52.246Z,2.40
2023-04-26T05:16:14.727Z,2.17
2023-04-26T05:21:37.053Z,2.12
2023-04-26T05:26:59.981Z,2.37
2023-04-26T05:32:22.225Z,1.62
2023-04-26T05:37:44.488Z,2.77
2023-04-26T05:43:06.728Z,2.15
2023-04-26T05:48:30.111Z,1.95
2023-04-26T05:53:52.727Z,2.27
2023-04-26T05:59:16.468Z,2.60
2023-04-26T06:04:39.294Z,2.20
2023-04-26T06:10:02.885Z,2.20
2023-04-26T06:15:25.695Z,2.00
2023-04-26T06:20:47.924Z,2.52
2023-04-26T06:26:10.175Z,2.50
2023-04-26T06:31:32.479Z,2.67
2023-04-26T06:36:54.840Z,2.15
2023-04-26T06:42:18.235Z,2.22
2023-04-26T06:47:40.515Z,2.10
2023-04-26T06:53:02.948Z,2.37
2023-04-26T06:58:25.210Z,2.10
2023-04-26T07:03:48.083Z,2.30
2023-04-26T07:09:13.553Z,3.40
2023-04-26T07:14:37.862Z,2.47
2023-04-26T07:20:00.193Z,2.02
2023-04-26T07:25:22.857Z,2.30
2023-04-26T07:30:45.116Z,2.00
2023-04-26T07:36:14.213Z,1.80
2023-04-26T07:41:37.053Z,2.45
2023-04-26T07:46:59.391Z,2.30
2023-04-26T07:52:22.704Z,1.82
2023-04-26T07:57:45.331Z,2.40
2023-04-26T08:03:08.711Z,2.42
2023-04-26T08:08:33.959Z,2.02
2023-04-26T08:13:56.601Z,2.33
2023-04-26T08:19:18.915Z,2.10
2023-04-26T08:24:41.205Z,2.10
2023-04-26T08:30:03.527Z,2.00
2023-04-26T08:35:26.014Z,1.98
2023-04-26T08:40:48.950Z,2.35
2023-04-26T08:46:13.589Z,2.60
2023-04-26T08:51:37.521Z,2.40
2023-04-26T08:57:02.362Z,2.20
2023-04-26T09:02:27.715Z,2.02
2023-04-26T09:07:53.635Z,2.33
2023-04-26T09:13:15.971Z,2.35
2023-04-26T09:18:39.304Z,2.25
2023-04-26T09:24:20.724Z,2.15
2023-04-26T09:29:43.061Z,1.60
2023-04-26T09:35:05.281Z,2.00
2023-04-26T09:40:34.105Z,1.92
2023-04-26T09:46:15.476Z,1.92
2023-04-26T09:51:37.895Z,2.05
2023-04-26T09:57:07.534Z,1.70
2023-04-26T10:02:36.035Z,2.10
2023-04-26T10:07:58.480Z,1.98
2023-04-26T10:13:22.426Z,1.70
2023-04-26T10:18:45.886Z,2.10
2023-04-26T10:24:09.328Z,2.00
2023-04-26T10:29:33.416Z,2.27
2023-04-26T10:35:14.599Z,1.80
2023-04-26T10:40:46.675Z,1.82
2023-04-26T10:46:12.568Z,2.12
2023-04-26T10:51:35.755Z,2.58
2023-04-26T10:57:01.645Z,1.87
2023-04-26T11:02:24.079Z,1.70
2023-04-26T11:07:58.483Z,1.32
2023-04-26T11:13:21.675Z,1.92
2023-04-26T11:18:46.420Z,2.20
2023-04-26T11:24:14.621Z,2.17
2023-04-26T11:29:40.351Z,1.67
2023-04-26T11:35:02.739Z,1.70
2023-04-26T11:40:27.300Z,1.60
2023-04-26T11:45:51.318Z,1.65
2023-04-26T11:51:19.073Z,1.87
2023-04-26T11:56:41.327Z,1.75
2023-04-26T12:02:06.374Z,1.70
2023-04-26T12:07:30.860Z,1.37
2023-04-26T12:12:57.935Z,1.32
2023-04-26T12:18:25.285Z,1.40
2023-04-26T12:23:51.024Z,1.50
2023-04-26T12:29:13.845Z,2.12
2023-04-26T12:34:36.592Z,1.90
2023-04-26T12:39:59.029Z,1.65
2023-04-26T12:45:21.503Z,1.40
2023-04-26T12:50:44.588Z,1.22
2023-04-26T12:56:07.164Z,1.60
2023-04-26T13:01:32.273Z,1.57
2023-04-26T13:06:55.076Z,1.65
2023-04-26T13:12:17.659Z,1.35
2023-04-26T13:17:43.386Z,2.45
2023-04-26T13:23:06.043Z,1.17
2023-04-26T13:28:28.849Z,1.72
2023-04-26T13:33:51.679Z,1.32
2023-04-26T13:39:14.386Z,1.50
2023-04-26T13:44:37.709Z,1.30
2023-04-26T13:50:00.452Z,1.77
2023-04-26T13:55:26.618Z,1.47
2023-04-26T14:00:49.912Z,1.40
2023-04-26T14:06:14.057Z,1.32
2023-04-26T14:11:36.503Z,1.47
2023-04-26T14:16:58.918Z,1.40
2023-04-26T14:22:21.318Z,1.35
2023-04-26T14:27:44.019Z,1.60
2023-04-26T14:33:06.587Z,1.37
2023-04-26T14:38:29.623Z,1.37
2023-04-26T14:43:55.123Z,1.52
2023-04-26T14:49:17.620Z,1.22
2023-04-26T14:54:41.876Z,1.57
2023-04-26T15:00:11.726Z,1.37
2023-04-26T15:05:34.151Z,1.43
2023-04-26T15:10:56.946Z,0.93
2023-04-26T15:16:23.195Z,1.30
2023-04-26T15:21:45.744Z,1.20
2023-04-26T15:27:09.374Z,1.30
2023-04-26T15:32:32.482Z,1.52
2023-04-26T15:37:56.520Z,1.10
2023-04-26T15:43:19.800Z,1.42
2023-04-26T15:48:43.049Z,1.30
2023-04-26T15:54:05.576Z,1.35
2023-04-26T15:59:28.796Z,1.95
2023-04-26T16:04:51.271Z,1.98
2023-04-26T16:10:15.177Z,1.50
2023-04-26T16:15:38.065Z,1.50
2023-04-26T16:21:03.094Z,1.62
2023-04-26T16:26:26.044Z,1.92
2023-04-26T16:31:49.232Z,1.87
2023-04-26T16:37:11.977Z,1.95
2023-04-26T16:42:37.349Z,1.45
2023-04-26T16:48:00.842Z,1.37
2023-04-26T16:53:23.444Z,1.90
2023-04-26T16:58:47.956Z,1.32
2023-04-26T17:04:13.338Z,1.62
2023-04-26T17:09:38.699Z,1.52
2023-04-26T17:15:04.450Z,1.80
2023-04-26T17:20:26.392Z,1.75
2023-04-26T17:25:49.700Z,2.02
2023-04-26T17:31:12.982Z,1.77
2023-04-26T17:36:35.608Z,2.02
2023-04-26T17:41:58.626Z,1.57
2023-04-26T17:47:22.254Z,1.95
2023-04-26T17:52:46.179Z,3.62
2023-04-26T17:58:08.985Z,1.60
2023-04-26T18:03:32.052Z,1.80
2023-04-26T18:08:54.595Z,1.82
2023-04-26T18:14:17.064Z,2.17
2023-04-26T18:19:39.547Z,2.50
2023-04-26T18:25:01.952Z,2.45
2023-04-26T18:30:25.239Z,2.62
2023-04-26T18:35:47.852Z,3.98
2023-04-26T18:41:10.083Z,4.67
2023-04-26T18:46:32.491Z,3.50
2023-04-26T18:51:54.764Z,3.98
2023-04-26T18:57:18.633Z,3.08
2023-04-26T19:02:41.445Z,3.02
2023-04-26T19:08:06.677Z,13.18
2023-04-26T19:13:29.807Z,3.40
2023-04-26T19:18:52.513Z,4.65
2023-04-26T19:24:14.835Z,4.15
2023-04-26T19:29:37.234Z,5.30
2023-04-26T19:34:59.598Z,7.47
2023-04-26T19:40:22.535Z,5.35
2023-04-26T19:45:44.844Z,6.58
2023-04-26T19:51:07.308Z,7.12
2023-04-26T19:56:29.610Z,6.47
2023-04-26T20:01:53.787Z,6.33
2023-04-26T20:07:15.809Z,6.62
2023-04-26T20:12:39.534Z,6.70
2023-04-26T20:18:02.491Z,9.20
2023-04-26T20:23:25.149Z,10.03
2023-04-26T20:28:47.914Z,10.98
2023-04-26T20:34:10.626Z,10.75
2023-04-26T20:39:34.280Z,10.80
2023-04-26T20:44:57.935Z,10.63
2023-04-26T20:50:21.625Z,10.18
2023-04-26T20:55:44.069Z,10.60
2023-04-26T21:01:12.931Z,10.08
2023-04-26T21:06:35.223Z,10.35
2023-04-26T21:11:57.560Z,11.55
2023-04-26T21:17:20.447Z,11.70
2023-04-26T21:22:42.767Z,12.35
2023-04-26T21:28:05.025Z,13.62
2023-04-26T21:33:27.480Z,13.15
2023-04-26T21:38:49.766Z,12.80
2023-04-26T21:44:12.457Z,12.55
2023-04-26T21:49:35.466Z,11.55
2023-04-26T21:54:57.874Z,9.38
2023-04-26T22:00:21.480Z,9.60
2023-04-26T22:05:44.892Z,8.88
2023-04-26T22:11:07.788Z,9.40
2023-04-26T22:16:30.145Z,8.58
2023-04-26T22:21:54.381Z,9.65
2023-04-26T22:27:16.765Z,10.05
2023-04-26T22:32:39.123Z,10.38
2023-04-26T22:38:01.653Z,10.75
2023-04-26T22:43:24.271Z,10.85
2023-04-26T22:48:46.640Z,12.65
2023-04-26T22:54:08.863Z,12.73
2023-04-26T22:59:32.756Z,13.15
2023-04-26T23:04:55.080Z,12.35
2023-04-26T23:10:18.747Z,11.73
2023-04-26T23:15:42.233Z,10.78
2023-04-26T23:21:04.479Z,10.53
2023-04-26T23:26:26.735Z,10.68
2023-04-26T23:31:49.044Z,12.47
2023-04-26T23:37:11.531Z,12.00
2023-04-26T23:42:33.770Z,12.75
2023-04-26T23:47:56.084Z,12.13
2023-04-26T23:53:18.416Z,12.95
2023-04-26T23:58:40.735Z,12.85
